Santiago/Comodoro Arturo Merino Benítez International Airport

Airport
ICAO code: 
SCEL
IATA Code: 
SCL
Summary
ICAO Region: 
CARSAM
Territory: 
Location: 
Pudahuel, Santiago Province
Serving: 
Santiago
Elevation: 
1555 ft
Coordinates: 
Aerial View: 
33° 23' 46.989" S, 70° 47' 41.114" W
Airport LOS: 
Parallel Runway Operation
Metar
Observation
SCEL 251300Z 00000KT 6000 FEW180 09/06 Q1019 NOSIG
Station
Pudahuel
Date/Time
2022-05-25 13:00:00
Wind direction
Wind speed
00 kts
Lowest cloud amount
few clouds
Temperature
9°C
Dew point
6°C
Humidity
81%
QNH
1019 hPa
Weather condition
n/a

Description

Santiago Arturo Merino Benítez International Airport, formerly known as Pudahuel Airport is situated 15 km north-west of downtown Santiago, Chile. It is a joint civil/military use airport.

Climatology

Dry-summer subtropical ”Mediterranean" climate (Köppen climate classification Csb) - characterized by warm, dry summers and mild winters.

Runways

Designator Length Width Surface Rops
17L/35R 3750 55 ASP Yes/Yes
17R/35L 3750 45 ASP Yes/Yes
Airport map: 
Aerial View: 

SKYbrary Partners:

Safety knowledge contributed by: